Hovedside
METAR-TAF:

METAR-TAF

Lufthavner :

Leknes lufthavn

Leknes, Norge

breddegrad: 68-09N, lengdegrad: 013-37E, høyde over havet: 2 m

Gjeldene værobservasjon

Denne rapporten ble laget for 35 minutter siden, klokken 04:20 UTC
Vind 5 kt fra Vest-nordvest
Temperatur 9°C
Luftfuktighet 93%
Trykk 1001 hPa
Sikt: 6000 m
Få skyer i en høyde av 400 ft
Spredte skyer i en høyde av 800 ft
Brutte skyer i en høyde av 3000 ft

METAR: ENLK 210420Z 29005KT 9999 6000NE FEW004 SCT008 BKN030 09/08 Q1001

Tid: 06:55 (04:55 UTC)


TAF: fraværende

Værobservasjoner og værvarsel for over 4000 flyplasser (METAR- og TAF-rapporter).

Tilgjengelige stasjoner er representert av de røde og gule prikkene på kartet.

Hold musepekeren over prikken for å se navnet på stasjonen.

Klikk så for å se værobservasjoner og -varsler.

For å forandre kartet kan du klikke på den grønne knappen med svart kryss for å zoome inn, på den grønne knappen med strek for å zoome ut, eller på de grønne pilene for å se tilstøtende kart.


METAR-TAF: